Arcadia, Oregon
Current Conditions -  °F | °C
As of 8:53 PM on Thursday 20 Nov 2014 (Local Time) from KONO Reporting Station
Haze Haze  
Wind Chill: 16°   Ceiling: Unl
Heat Index: 22°   Visibility: 3mi
Dew Point: 18°   Wind: 5mph
Humidity: 85%   Direction: 150°SSE
Pressure: 30.13"   Gusts: NA
Location:  43.754°N, 117.202°W
Report Text: KONO 210353Z AUTO 15004KT 3SM BR CLR M06/M08 A3013 RMK AO2 SLP233 T10561078
Loading
Personal Weather Stations






























Interactive Weather Map New forecast layout! Learn more

10-Day Weather Forecast

Advertisements
Track Severe Weather on mobile